DLH646 UACC-UAAA
Flight info
| Callsign | DLH646 |
|---|---|
| Flight time | 1h 21m |
| Altitude | 41000 |
| Route | K0850F410 DCT BANOS W333 ETEDA ETEDA1X |
| Aircraft | A343/H-SDE2E3FGHIJ4J5M1RWXY/LB1D1 |
Departure
| Time | 2026-05-08 07:30 |
|---|---|
| Airport | Nursultan Nazarbayev International Airport (UACC) |
Arrival
| Time | 2026-05-08 08:52 |
|---|---|
| Airport | Almaty International Airport (UAAA) |
| Time | Latitude | Longitude | Altitude | Speed | Heading |
|---|---|---|---|---|---|
| 2026-05-08 07:16 | 51.02832 | 71.46555 | 1163 ft | 0 kts | 314° |
| 2026-05-08 07:20 | 51.02831 | 71.46557 | 1168 ft | 2 kts | 314° |
| 2026-05-08 07:20 | 51.02813 | 71.46585 | 1163 ft | 4 kts | 314° |
| 2026-05-08 07:21 | 51.02794 | 71.46616 | 1167 ft | 4 kts | 315° |
| 2026-05-08 07:21 | 51.02777 | 71.46641 | 1163 ft | 4 kts | 333° |
| 2026-05-08 07:21 | 51.02756 | 71.46645 | 1168 ft | 4 kts | 37° |
| 2026-05-08 07:21 | 51.02739 | 71.46618 | 1168 ft | 1 kts | 44° |
| 2026-05-08 07:22 | 51.02735 | 71.46613 | 1168 ft | 0 kts | 44° |
| 2026-05-08 07:24 | 51.02735 | 71.46614 | 1163 ft | 0 kts | 44° |
| 2026-05-08 07:24 | 51.02741 | 71.46622 | 1168 ft | 2 kts | 44° |
| 2026-05-08 07:25 | 51.02754 | 71.46642 | 1168 ft | 5 kts | 43° |
| 2026-05-08 07:25 | 51.02796 | 71.46702 | 1163 ft | 10 kts | 41° |
| 2026-05-08 07:25 | 51.02788 | 71.46861 | 1163 ft | 8 kts | 140° |
| 2026-05-08 07:26 | 51.02770 | 71.46936 | 1168 ft | 7 kts | 85° |
| 2026-05-08 07:26 | 51.02796 | 71.46998 | 1166 ft | 8 kts | 45° |
| 2026-05-08 07:26 | 51.02847 | 71.47079 | 1163 ft | 11 kts | 45° |
| 2026-05-08 07:26 | 51.02904 | 71.47170 | 1167 ft | 12 kts | 44° |
| 2026-05-08 07:27 | 51.02976 | 71.47280 | 1165 ft | 19 kts | 44° |
| 2026-05-08 07:27 | 51.03090 | 71.47456 | 1163 ft | 24 kts | 44° |
| 2026-05-08 07:27 | 51.03211 | 71.47644 | 1163 ft | 24 kts | 44° |
| 2026-05-08 07:27 | 51.03331 | 71.47833 | 1166 ft | 24 kts | 44° |
| 2026-05-08 07:28 | 51.03391 | 71.47925 | 1168 ft | 0 kts | 44° |
| 2026-05-08 07:28 | 51.03403 | 71.47943 | 1168 ft | 9 kts | 44° |
| 2026-05-08 07:28 | 51.03430 | 71.48064 | 1166 ft | 11 kts | 90° |
| 2026-05-08 07:28 | 51.03430 | 71.48190 | 1166 ft | 13 kts | 90° |
| 2026-05-08 07:29 | 51.03399 | 71.48309 | 1169 ft | 11 kts | 144° |
| 2026-05-08 07:29 | 51.03313 | 71.48266 | 1165 ft | 9 kts | 226° |
| 2026-05-08 07:29 | 51.03310 | 71.48261 | 1165 ft | 0 kts | 226° |
| 2026-05-08 07:29 | 51.03295 | 71.48235 | 1168 ft | 17 kts | 228° |
| 2026-05-08 07:30 | 51.03012 | 71.47783 | 1169 ft | 97 kts | 223° |
| 2026-05-08 07:30 | 51.02353 | 71.46774 | 1171 ft | 163 kts | 224° |
| 2026-05-08 07:30 | 51.01504 | 71.45444 | 1803 ft | 174 kts | 228° |
| 2026-05-08 07:30 | 51.00661 | 71.44043 | 2562 ft | 186 kts | 233° |
| 2026-05-08 07:31 | 50.99767 | 71.42422 | 3034 ft | 203 kts | 217° |
| 2026-05-08 07:31 | 50.98420 | 71.41848 | 3645 ft | 206 kts | 179° |
| 2026-05-08 07:31 | 50.97063 | 71.42719 | 4110 ft | 223 kts | 144° |
| 2026-05-08 07:31 | 50.96108 | 71.44845 | 4432 ft | 252 kts | 116° |
| 2026-05-08 07:32 | 50.95575 | 71.47542 | 5203 ft | 260 kts | 109° |
| 2026-05-08 07:32 | 50.95007 | 71.50306 | 6036 ft | 267 kts | 116° |
| 2026-05-08 07:32 | 50.94178 | 71.52976 | 6848 ft | 273 kts | 126° |
| 2026-05-08 07:32 | 50.93069 | 71.55458 | 7644 ft | 280 kts | 134° |
| 2026-05-08 07:33 | 50.91771 | 71.57784 | 8449 ft | 282 kts | 139° |
| 2026-05-08 07:33 | 50.90355 | 71.59992 | 9182 ft | 290 kts | 142° |
| 2026-05-08 07:33 | 50.88835 | 71.62200 | 10110 ft | 295 kts | 143° |
| 2026-05-08 07:33 | 50.87243 | 71.64366 | 10777 ft | 311 kts | 144° |
| 2026-05-08 07:34 | 50.85547 | 71.66658 | 11129 ft | 328 kts | 145° |
| 2026-05-08 07:34 | 50.83805 | 71.69086 | 11406 ft | 343 kts | 143° |
| 2026-05-08 07:34 | 50.82055 | 71.71638 | 11944 ft | 350 kts | 142° |
| 2026-05-08 07:34 | 50.80266 | 71.74252 | 12500 ft | 353 kts | 143° |
| 2026-05-08 07:35 | 50.78445 | 71.76925 | 13076 ft | 360 kts | 142° |
| 2026-05-08 07:35 | 50.76617 | 71.79634 | 13791 ft | 361 kts | 142° |
| 2026-05-08 07:35 | 50.74779 | 71.82359 | 14495 ft | 363 kts | 142° |
| 2026-05-08 07:35 | 50.72929 | 71.85092 | 15185 ft | 366 kts | 143° |
| 2026-05-08 07:36 | 50.71059 | 71.87847 | 15854 ft | 369 kts | 143° |
| 2026-05-08 07:36 | 50.69173 | 71.90615 | 16505 ft | 371 kts | 143° |
| 2026-05-08 07:36 | 50.67274 | 71.93397 | 17165 ft | 374 kts | 143° |
| 2026-05-08 07:36 | 50.65358 | 71.96199 | 17790 ft | 376 kts | 143° |
| 2026-05-08 07:37 | 50.63459 | 71.98975 | 18387 ft | 378 kts | 143° |
| 2026-05-08 07:37 | 50.61521 | 72.01801 | 18959 ft | 381 kts | 144° |
| 2026-05-08 07:37 | 50.59559 | 72.04657 | 19459 ft | 386 kts | 144° |
| 2026-05-08 07:37 | 50.57570 | 72.07550 | 19973 ft | 391 kts | 144° |
| 2026-05-08 07:38 | 50.55564 | 72.10468 | 20497 ft | 394 kts | 144° |
| 2026-05-08 07:38 | 50.53542 | 72.13406 | 21003 ft | 397 kts | 144° |
| 2026-05-08 07:38 | 50.51501 | 72.16367 | 21478 ft | 400 kts | 144° |
| 2026-05-08 07:38 | 50.49443 | 72.19348 | 21937 ft | 404 kts | 144° |
| 2026-05-08 07:39 | 50.47389 | 72.22321 | 22381 ft | 407 kts | 144° |
| 2026-05-08 07:39 | 50.45293 | 72.25353 | 22822 ft | 410 kts | 144° |
| 2026-05-08 07:39 | 50.43187 | 72.28392 | 23234 ft | 414 kts | 145° |
| 2026-05-08 07:39 | 50.41056 | 72.31464 | 23654 ft | 417 kts | 145° |
| 2026-05-08 07:40 | 50.38913 | 72.34549 | 24056 ft | 420 kts | 145° |
| 2026-05-08 07:40 | 50.36747 | 72.37664 | 24456 ft | 423 kts | 145° |
| 2026-05-08 07:40 | 50.34573 | 72.40790 | 24844 ft | 426 kts | 145° |
| 2026-05-08 07:40 | 50.32384 | 72.43934 | 25239 ft | 428 kts | 145° |
| 2026-05-08 07:41 | 50.30176 | 72.47089 | 25637 ft | 430 kts | 146° |
| 2026-05-08 07:41 | 50.27957 | 72.50249 | 26009 ft | 432 kts | 145° |
| 2026-05-08 07:41 | 50.25729 | 72.53433 | 26342 ft | 435 kts | 145° |
| 2026-05-08 07:41 | 50.23519 | 72.56594 | 26662 ft | 437 kts | 145° |
| 2026-05-08 07:42 | 50.21277 | 72.59800 | 27018 ft | 438 kts | 145° |
| 2026-05-08 07:42 | 50.19022 | 72.63014 | 27321 ft | 441 kts | 146° |
| 2026-05-08 07:42 | 50.16755 | 72.66258 | 27616 ft | 443 kts | 145° |
| 2026-05-08 07:42 | 50.14498 | 72.69558 | 27897 ft | 446 kts | 144° |
| 2026-05-08 07:43 | 50.12242 | 72.72893 | 28172 ft | 447 kts | 144° |
| 2026-05-08 07:43 | 50.09981 | 72.76246 | 28452 ft | 449 kts | 144° |
| 2026-05-08 07:43 | 50.07706 | 72.79612 | 28740 ft | 451 kts | 144° |
| 2026-05-08 07:43 | 50.05425 | 72.82975 | 28982 ft | 453 kts | 144° |
| 2026-05-08 07:44 | 50.03133 | 72.86342 | 29253 ft | 454 kts | 144° |
| 2026-05-08 07:44 | 50.00829 | 72.89715 | 29500 ft | 456 kts | 145° |
| 2026-05-08 07:44 | 49.98515 | 72.93095 | 29748 ft | 457 kts | 145° |
| 2026-05-08 07:44 | 49.96190 | 72.96484 | 29995 ft | 459 kts | 145° |
| 2026-05-08 07:45 | 49.93856 | 72.99881 | 30208 ft | 461 kts | 145° |
| 2026-05-08 07:45 | 49.91509 | 73.03293 | 30428 ft | 463 kts | 145° |
| 2026-05-08 07:45 | 49.89183 | 73.06668 | 30610 ft | 465 kts | 145° |
| 2026-05-08 07:45 | 49.86813 | 73.10102 | 30804 ft | 467 kts | 145° |
| 2026-05-08 07:46 | 49.84422 | 73.13567 | 30994 ft | 469 kts | 145° |
| 2026-05-08 07:46 | 49.82032 | 73.17023 | 31202 ft | 471 kts | 145° |
| 2026-05-08 07:46 | 49.79636 | 73.20482 | 31382 ft | 473 kts | 145° |
| 2026-05-08 07:46 | 49.77221 | 73.23962 | 31548 ft | 475 kts | 145° |
| 2026-05-08 07:47 | 49.74799 | 73.27445 | 31705 ft | 478 kts | 145° |
| 2026-05-08 07:47 | 49.72360 | 73.30945 | 31897 ft | 479 kts | 146° |
| 2026-05-08 07:47 | 49.69870 | 73.34294 | 32166 ft | 474 kts | 151° |
| 2026-05-08 07:47 | 49.67140 | 73.37087 | 32394 ft | 467 kts | 160° |
| 2026-05-08 07:48 | 49.64207 | 73.39242 | 32477 ft | 466 kts | 166° |
| 2026-05-08 07:48 | 49.61208 | 73.41150 | 32585 ft | 466 kts | 167° |
| 2026-05-08 07:48 | 49.58186 | 73.42965 | 32824 ft | 465 kts | 168° |
| 2026-05-08 07:48 | 49.55203 | 73.44719 | 33030 ft | 464 kts | 168° |
| 2026-05-08 07:49 | 49.52184 | 73.46491 | 33228 ft | 464 kts | 168° |
| 2026-05-08 07:49 | 49.49171 | 73.48271 | 33461 ft | 464 kts | 168° |
| 2026-05-08 07:49 | 49.46164 | 73.50064 | 33690 ft | 464 kts | 168° |
| 2026-05-08 07:49 | 49.43155 | 73.51868 | 33878 ft | 463 kts | 168° |
| 2026-05-08 07:50 | 49.40153 | 73.53671 | 34073 ft | 463 kts | 168° |
| 2026-05-08 07:50 | 49.37149 | 73.55476 | 34262 ft | 463 kts | 168° |
| 2026-05-08 07:50 | 49.34143 | 73.57280 | 34460 ft | 463 kts | 168° |
| 2026-05-08 07:50 | 49.31144 | 73.59079 | 34657 ft | 462 kts | 168° |
| 2026-05-08 07:51 | 49.28147 | 73.60878 | 34868 ft | 461 kts | 168° |
| 2026-05-08 07:51 | 49.25158 | 73.62667 | 35059 ft | 461 kts | 168° |
| 2026-05-08 07:51 | 49.22168 | 73.64453 | 35235 ft | 461 kts | 168° |
| 2026-05-08 07:51 | 49.19217 | 73.66210 | 35398 ft | 461 kts | 168° |
| 2026-05-08 07:52 | 49.16226 | 73.67986 | 35564 ft | 461 kts | 167° |
| 2026-05-08 07:52 | 49.13234 | 73.69761 | 35730 ft | 461 kts | 167° |
| 2026-05-08 07:52 | 49.10252 | 73.71527 | 35881 ft | 460 kts | 167° |
| 2026-05-08 07:52 | 49.07256 | 73.73301 | 36026 ft | 460 kts | 167° |
| 2026-05-08 07:53 | 49.04267 | 73.75067 | 36171 ft | 460 kts | 167° |
| 2026-05-08 07:53 | 49.01284 | 73.76830 | 36339 ft | 460 kts | 167° |
| 2026-05-08 07:53 | 48.98296 | 73.78593 | 36465 ft | 460 kts | 167° |
| 2026-05-08 07:53 | 48.95313 | 73.80355 | 36623 ft | 459 kts | 167° |
| 2026-05-08 07:54 | 48.92329 | 73.82106 | 36786 ft | 459 kts | 167° |
| 2026-05-08 07:54 | 48.89356 | 73.83842 | 36992 ft | 457 kts | 167° |
| 2026-05-08 07:54 | 48.86400 | 73.85566 | 37220 ft | 454 kts | 167° |
| 2026-05-08 07:54 | 48.83456 | 73.87282 | 37440 ft | 452 kts | 166° |
| 2026-05-08 07:55 | 48.80528 | 73.88987 | 37602 ft | 451 kts | 166° |
| 2026-05-08 07:55 | 48.77610 | 73.90689 | 37758 ft | 450 kts | 166° |
| 2026-05-08 07:55 | 48.74723 | 73.92369 | 37901 ft | 449 kts | 166° |
| 2026-05-08 07:55 | 48.71798 | 73.94069 | 38031 ft | 448 kts | 166° |
| 2026-05-08 07:56 | 48.68888 | 73.95756 | 38158 ft | 448 kts | 166° |
| 2026-05-08 07:56 | 48.65980 | 73.97439 | 38259 ft | 448 kts | 166° |
| 2026-05-08 07:56 | 48.63064 | 73.99125 | 38370 ft | 447 kts | 166° |
| 2026-05-08 07:56 | 48.60155 | 74.00837 | 38521 ft | 448 kts | 161° |
| 2026-05-08 07:57 | 48.57282 | 74.02667 | 38745 ft | 447 kts | 160° |
| 2026-05-08 07:57 | 48.54421 | 74.04507 | 38945 ft | 447 kts | 161° |
| 2026-05-08 07:57 | 48.51551 | 74.06306 | 39002 ft | 449 kts | 161° |
| 2026-05-08 07:58 | 48.45740 | 74.09774 | 39011 ft | 446 kts | 162° |
| 2026-05-08 07:58 | 48.39973 | 74.13085 | 39009 ft | 445 kts | 162° |
| 2026-05-08 07:59 | 48.34186 | 74.16371 | 39010 ft | 444 kts | 162° |
| 2026-05-08 07:59 | 48.28415 | 74.19643 | 39009 ft | 444 kts | 162° |
| 2026-05-08 08:00 | 48.22634 | 74.22926 | 38996 ft | 444 kts | 162° |
| 2026-05-08 08:00 | 48.16848 | 74.26201 | 38999 ft | 444 kts | 162° |
| 2026-05-08 08:01 | 48.11061 | 74.29473 | 38994 ft | 444 kts | 162° |
| 2026-05-08 08:01 | 48.05312 | 74.32756 | 38995 ft | 444 kts | 162° |
| 2026-05-08 08:02 | 47.99517 | 74.36070 | 38997 ft | 444 kts | 162° |
| 2026-05-08 08:02 | 47.93749 | 74.39357 | 38994 ft | 444 kts | 162° |
| 2026-05-08 08:03 | 47.87950 | 74.42651 | 39000 ft | 445 kts | 162° |
| 2026-05-08 08:03 | 47.82150 | 74.45935 | 38994 ft | 445 kts | 162° |
| 2026-05-08 08:04 | 47.76386 | 74.49189 | 38998 ft | 446 kts | 163° |
| 2026-05-08 08:04 | 47.70578 | 74.52460 | 38994 ft | 447 kts | 163° |
| 2026-05-08 08:05 | 47.64750 | 74.55734 | 38997 ft | 447 kts | 163° |
| 2026-05-08 08:05 | 47.58912 | 74.59009 | 39005 ft | 448 kts | 163° |
| 2026-05-08 08:06 | 47.53098 | 74.62264 | 39003 ft | 449 kts | 163° |
| 2026-05-08 08:06 | 47.47252 | 74.65555 | 38994 ft | 450 kts | 163° |
| 2026-05-08 08:07 | 47.41401 | 74.68842 | 39005 ft | 450 kts | 163° |
| 2026-05-08 08:07 | 47.35563 | 74.72113 | 38992 ft | 451 kts | 163° |
| 2026-05-08 08:08 | 47.29691 | 74.75392 | 38986 ft | 451 kts | 163° |
| 2026-05-08 08:08 | 47.23818 | 74.78667 | 38991 ft | 452 kts | 163° |
| 2026-05-08 08:09 | 47.17913 | 74.81953 | 38987 ft | 453 kts | 163° |
| 2026-05-08 08:09 | 47.12019 | 74.85224 | 38987 ft | 453 kts | 163° |
| 2026-05-08 08:10 | 47.06113 | 74.88496 | 38995 ft | 454 kts | 163° |
| 2026-05-08 08:10 | 47.00232 | 74.91747 | 38987 ft | 454 kts | 163° |
| 2026-05-08 08:11 | 46.94305 | 74.95012 | 38988 ft | 455 kts | 163° |
| 2026-05-08 08:11 | 46.88362 | 74.98277 | 38983 ft | 455 kts | 163° |
| 2026-05-08 08:12 | 46.82490 | 75.01794 | 38994 ft | 458 kts | 160° |
| 2026-05-08 08:12 | 46.76670 | 75.05597 | 38994 ft | 458 kts | 160° |
| 2026-05-08 08:13 | 46.70841 | 75.09370 | 38987 ft | 458 kts | 160° |
| 2026-05-08 08:13 | 46.65031 | 75.13062 | 38993 ft | 458 kts | 161° |
| 2026-05-08 08:14 | 46.59184 | 75.16746 | 38990 ft | 458 kts | 161° |
| 2026-05-08 08:14 | 46.53324 | 75.20426 | 38991 ft | 458 kts | 161° |
| 2026-05-08 08:15 | 46.47463 | 75.24098 | 38991 ft | 458 kts | 161° |
| 2026-05-08 08:15 | 46.42600 | 75.27142 | 38993 ft | 458 kts | 161° |
| 2026-05-08 08:16 | 46.36740 | 75.30803 | 38996 ft | 459 kts | 161° |
| 2026-05-08 08:16 | 46.30871 | 75.34461 | 38993 ft | 459 kts | 161° |
| 2026-05-08 08:17 | 46.24999 | 75.38111 | 39000 ft | 459 kts | 161° |
| 2026-05-08 08:17 | 46.19165 | 75.41736 | 38993 ft | 459 kts | 161° |
| 2026-05-08 08:18 | 46.13296 | 75.45400 | 39001 ft | 459 kts | 161° |
| 2026-05-08 08:18 | 46.07429 | 75.49058 | 38997 ft | 459 kts | 161° |
| 2026-05-08 08:19 | 46.01552 | 75.52710 | 39003 ft | 459 kts | 161° |
| 2026-05-08 08:19 | 45.95686 | 75.56346 | 38998 ft | 460 kts | 161° |
| 2026-05-08 08:20 | 45.89841 | 75.59955 | 39006 ft | 460 kts | 161° |
| 2026-05-08 08:20 | 45.83954 | 75.63587 | 39003 ft | 460 kts | 161° |
| 2026-05-08 08:21 | 45.78069 | 75.67211 | 39005 ft | 460 kts | 161° |
| 2026-05-08 08:21 | 45.72212 | 75.70809 | 38994 ft | 460 kts | 161° |
| 2026-05-08 08:22 | 45.66295 | 75.74453 | 39000 ft | 460 kts | 161° |
| 2026-05-08 08:22 | 45.60405 | 75.78063 | 38999 ft | 460 kts | 161° |
| 2026-05-08 08:23 | 45.54509 | 75.81663 | 39006 ft | 460 kts | 161° |
| 2026-05-08 08:23 | 45.48625 | 75.85246 | 39004 ft | 460 kts | 161° |
| 2026-05-08 08:24 | 45.42726 | 75.88829 | 38992 ft | 461 kts | 161° |
| 2026-05-08 08:24 | 45.36861 | 75.92385 | 38999 ft | 461 kts | 161° |
| 2026-05-08 08:25 | 45.30946 | 75.95962 | 39002 ft | 461 kts | 161° |
| 2026-05-08 08:25 | 45.25043 | 75.99525 | 39009 ft | 462 kts | 161° |
| 2026-05-08 08:26 | 45.19116 | 76.03093 | 38953 ft | 463 kts | 161° |
| 2026-05-08 08:26 | 45.16151 | 76.04875 | 38710 ft | 462 kts | 161° |
| 2026-05-08 08:26 | 45.13190 | 76.06653 | 38465 ft | 463 kts | 161° |
| 2026-05-08 08:26 | 45.10218 | 76.08435 | 38213 ft | 463 kts | 161° |
| 2026-05-08 08:27 | 45.07255 | 76.10208 | 37962 ft | 463 kts | 161° |
| 2026-05-08 08:27 | 45.04280 | 76.11987 | 37732 ft | 463 kts | 161° |
| 2026-05-08 08:27 | 45.01305 | 76.13766 | 37475 ft | 463 kts | 161° |
| 2026-05-08 08:27 | 44.98366 | 76.15520 | 37197 ft | 462 kts | 160° |
| 2026-05-08 08:28 | 44.95422 | 76.17279 | 36732 ft | 461 kts | 160° |
| 2026-05-08 08:28 | 44.92468 | 76.19037 | 36183 ft | 461 kts | 160° |
| 2026-05-08 08:28 | 44.89504 | 76.20798 | 35567 ft | 463 kts | 160° |
| 2026-05-08 08:28 | 44.86517 | 76.22571 | 34922 ft | 466 kts | 160° |
| 2026-05-08 08:29 | 44.83514 | 76.24351 | 34260 ft | 469 kts | 159° |
| 2026-05-08 08:29 | 44.80499 | 76.26137 | 33575 ft | 471 kts | 159° |
| 2026-05-08 08:29 | 44.77481 | 76.27922 | 32883 ft | 473 kts | 159° |
| 2026-05-08 08:29 | 44.74432 | 76.29724 | 32165 ft | 475 kts | 159° |
| 2026-05-08 08:30 | 44.71383 | 76.31526 | 31612 ft | 472 kts | 159° |
| 2026-05-08 08:30 | 44.68358 | 76.33310 | 31129 ft | 468 kts | 159° |
| 2026-05-08 08:30 | 44.62399 | 76.36822 | 30140 ft | 461 kts | 159° |
| 2026-05-08 08:31 | 44.59453 | 76.38556 | 29634 ft | 458 kts | 159° |
| 2026-05-08 08:31 | 44.56516 | 76.40282 | 29129 ft | 455 kts | 159° |
| 2026-05-08 08:31 | 44.53606 | 76.41990 | 28619 ft | 452 kts | 159° |
| 2026-05-08 08:31 | 44.50712 | 76.43686 | 28112 ft | 449 kts | 159° |
| 2026-05-08 08:32 | 44.47828 | 76.45376 | 27613 ft | 447 kts | 159° |
| 2026-05-08 08:32 | 44.44977 | 76.47044 | 27123 ft | 443 kts | 159° |
| 2026-05-08 08:32 | 44.42137 | 76.48704 | 26620 ft | 440 kts | 159° |
| 2026-05-08 08:32 | 44.39317 | 76.50350 | 26100 ft | 438 kts | 159° |
| 2026-05-08 08:33 | 44.36437 | 76.51675 | 25592 ft | 433 kts | 171° |
| 2026-05-08 08:33 | 44.33472 | 76.51980 | 25105 ft | 425 kts | 187° |
| 2026-05-08 08:33 | 44.30603 | 76.51168 | 24612 ft | 417 kts | 202° |
| 2026-05-08 08:33 | 44.27938 | 76.49593 | 24126 ft | 414 kts | 208° |
| 2026-05-08 08:34 | 44.25402 | 76.47904 | 23669 ft | 409 kts | 208° |
| 2026-05-08 08:34 | 44.22846 | 76.46221 | 23210 ft | 405 kts | 208° |
| 2026-05-08 08:34 | 44.20299 | 76.44550 | 22747 ft | 403 kts | 208° |
| 2026-05-08 08:34 | 44.17760 | 76.42889 | 22282 ft | 400 kts | 208° |
| 2026-05-08 08:35 | 44.15243 | 76.41246 | 21811 ft | 398 kts | 208° |
| 2026-05-08 08:35 | 44.12745 | 76.39623 | 21364 ft | 395 kts | 208° |
| 2026-05-08 08:35 | 44.10267 | 76.38015 | 20898 ft | 391 kts | 208° |
| 2026-05-08 08:35 | 44.07808 | 76.36421 | 20436 ft | 388 kts | 208° |
| 2026-05-08 08:36 | 44.05380 | 76.34850 | 19996 ft | 385 kts | 208° |
| 2026-05-08 08:36 | 44.02935 | 76.33270 | 19550 ft | 382 kts | 208° |
| 2026-05-08 08:36 | 44.00563 | 76.31736 | 19108 ft | 380 kts | 208° |
| 2026-05-08 08:36 | 43.98173 | 76.30194 | 18667 ft | 377 kts | 208° |
| 2026-05-08 08:37 | 43.95811 | 76.28671 | 18235 ft | 374 kts | 208° |
| 2026-05-08 08:37 | 43.93468 | 76.27162 | 17939 ft | 367 kts | 207° |
| 2026-05-08 08:37 | 43.91178 | 76.25693 | 17678 ft | 360 kts | 207° |
| 2026-05-08 08:37 | 43.88808 | 76.24546 | 17202 ft | 362 kts | 193° |
| 2026-05-08 08:38 | 43.86287 | 76.24461 | 16767 ft | 365 kts | 174° |
| 2026-05-08 08:38 | 43.83792 | 76.25137 | 16352 ft | 365 kts | 170° |
| 2026-05-08 08:38 | 43.81321 | 76.25927 | 15935 ft | 362 kts | 169° |
| 2026-05-08 08:38 | 43.78904 | 76.26699 | 15527 ft | 360 kts | 169° |
| 2026-05-08 08:39 | 43.76473 | 76.27466 | 15116 ft | 358 kts | 170° |
| 2026-05-08 08:39 | 43.74047 | 76.28224 | 14728 ft | 355 kts | 169° |
| 2026-05-08 08:39 | 43.71646 | 76.28971 | 14329 ft | 353 kts | 169° |
| 2026-05-08 08:39 | 43.69257 | 76.29711 | 13928 ft | 350 kts | 169° |
| 2026-05-08 08:40 | 43.66889 | 76.30443 | 13520 ft | 348 kts | 169° |
| 2026-05-08 08:40 | 43.64528 | 76.31173 | 13128 ft | 346 kts | 169° |
| 2026-05-08 08:40 | 43.62187 | 76.31893 | 12735 ft | 343 kts | 169° |
| 2026-05-08 08:40 | 43.59888 | 76.32746 | 12319 ft | 342 kts | 161° |
| 2026-05-08 08:41 | 43.57742 | 76.34066 | 11760 ft | 334 kts | 155° |
| 2026-05-08 08:41 | 43.55694 | 76.35490 | 11275 ft | 324 kts | 155° |
| 2026-05-08 08:41 | 43.53692 | 76.36890 | 10882 ft | 324 kts | 155° |
| 2026-05-08 08:41 | 43.51705 | 76.38270 | 10727 ft | 312 kts | 155° |
| 2026-05-08 08:42 | 43.49825 | 76.39575 | 10570 ft | 291 kts | 155° |
| 2026-05-08 08:42 | 43.48060 | 76.40797 | 10448 ft | 279 kts | 155° |
| 2026-05-08 08:42 | 43.46332 | 76.41988 | 10243 ft | 277 kts | 155° |
| 2026-05-08 08:42 | 43.44606 | 76.43173 | 9941 ft | 277 kts | 155° |
| 2026-05-08 08:43 | 43.42886 | 76.44354 | 9639 ft | 276 kts | 155° |
| 2026-05-08 08:43 | 43.41193 | 76.45548 | 9336 ft | 276 kts | 151° |
| 2026-05-08 08:43 | 43.39658 | 76.47125 | 9042 ft | 276 kts | 139° |
| 2026-05-08 08:43 | 43.38258 | 76.48928 | 8727 ft | 275 kts | 137° |
| 2026-05-08 08:44 | 43.36876 | 76.50757 | 8430 ft | 276 kts | 137° |
| 2026-05-08 08:44 | 43.35483 | 76.52594 | 8105 ft | 278 kts | 137° |
| 2026-05-08 08:44 | 43.34081 | 76.54433 | 7799 ft | 279 kts | 137° |
| 2026-05-08 08:44 | 43.32669 | 76.56281 | 7488 ft | 280 kts | 137° |
| 2026-05-08 08:45 | 43.31276 | 76.58101 | 7323 ft | 273 kts | 137° |
| 2026-05-08 08:45 | 43.29920 | 76.59875 | 7185 ft | 265 kts | 137° |
| 2026-05-08 08:45 | 43.28599 | 76.61600 | 6992 ft | 260 kts | 137° |
| 2026-05-08 08:45 | 43.27310 | 76.63303 | 6711 ft | 260 kts | 135° |
| 2026-05-08 08:46 | 43.26302 | 76.65335 | 6426 ft | 260 kts | 112° |
| 2026-05-08 08:46 | 43.25801 | 76.67703 | 6211 ft | 257 kts | 104° |
| 2026-05-08 08:46 | 43.25423 | 76.70069 | 6065 ft | 250 kts | 103° |
| 2026-05-08 08:46 | 43.25057 | 76.72371 | 5940 ft | 243 kts | 103° |
| 2026-05-08 08:47 | 43.24697 | 76.74610 | 5786 ft | 238 kts | 104° |
| 2026-05-08 08:47 | 43.24337 | 76.76807 | 5599 ft | 234 kts | 103° |
| 2026-05-08 08:47 | 43.23987 | 76.78950 | 5489 ft | 227 kts | 102° |
| 2026-05-08 08:47 | 43.24070 | 76.81067 | 5320 ft | 219 kts | 73° |
| 2026-05-08 08:48 | 43.24725 | 76.82901 | 5105 ft | 212 kts | 57° |
| 2026-05-08 08:48 | 43.25576 | 76.84532 | 4829 ft | 207 kts | 55° |
| 2026-05-08 08:48 | 43.26379 | 76.86107 | 4648 ft | 193 kts | 56° |
| 2026-05-08 08:48 | 43.27103 | 76.87574 | 4448 ft | 179 kts | 57° |
| 2026-05-08 08:49 | 43.27768 | 76.88930 | 4248 ft | 165 kts | 56° |
| 2026-05-08 08:49 | 43.28375 | 76.90161 | 4107 ft | 146 kts | 56° |
| 2026-05-08 08:49 | 43.28925 | 76.91272 | 4031 ft | 143 kts | 56° |
| 2026-05-08 08:49 | 43.29484 | 76.92399 | 3872 ft | 148 kts | 56° |
| 2026-05-08 08:50 | 43.30063 | 76.93567 | 3688 ft | 148 kts | 56° |
| 2026-05-08 08:50 | 43.30643 | 76.94732 | 3459 ft | 146 kts | 55° |
| 2026-05-08 08:50 | 43.31217 | 76.95873 | 3286 ft | 145 kts | 56° |
| 2026-05-08 08:50 | 43.31783 | 76.97054 | 3101 ft | 151 kts | 56° |
| 2026-05-08 08:51 | 43.32374 | 76.98224 | 2883 ft | 147 kts | 54° |
| 2026-05-08 08:51 | 43.32951 | 76.99363 | 2687 ft | 145 kts | 56° |
| 2026-05-08 08:51 | 43.33518 | 77.00513 | 2482 ft | 145 kts | 56° |
| 2026-05-08 08:51 | 43.34089 | 77.01667 | 2272 ft | 146 kts | 55° |
| 2026-05-08 08:52 | 43.34628 | 77.02746 | 2226 ft | 116 kts | 56° |
| 2026-05-08 08:52 | 43.34908 | 77.03324 | 2228 ft | 31 kts | 57° |
| 2026-05-08 08:52 | 43.34962 | 77.03441 | 2229 ft | 22 kts | 61° |
| 2026-05-08 08:52 | 43.35047 | 77.03609 | 2234 ft | 21 kts | 53° |
| 2026-05-08 08:53 | 43.35133 | 77.03772 | 2233 ft | 21 kts | 49° |
| 2026-05-08 08:53 | 43.35244 | 77.03902 | 2232 ft | 21 kts | 31° |
| 2026-05-08 08:53 | 43.35375 | 77.03998 | 2224 ft | 21 kts | 25° |
| 2026-05-08 08:53 | 43.35437 | 77.03981 | 2228 ft | 3 kts | 288° |
| 2026-05-08 08:54 | 43.35427 | 77.03917 | 2228 ft | 12 kts | 247° |
| 2026-05-08 08:54 | 43.35375 | 77.03807 | 2226 ft | 14 kts | 235° |
| 2026-05-08 08:54 | 43.35320 | 77.03698 | 2231 ft | 14 kts | 235° |
| 2026-05-08 08:54 | 43.35265 | 77.03584 | 2232 ft | 14 kts | 237° |
| 2026-05-08 08:55 | 43.35212 | 77.03474 | 2234 ft | 14 kts | 235° |
| 2026-05-08 08:55 | 43.35152 | 77.03351 | 2233 ft | 17 kts | 236° |
| 2026-05-08 08:55 | 43.35083 | 77.03211 | 2233 ft | 18 kts | 236° |
| 2026-05-08 08:55 | 43.35006 | 77.03054 | 2228 ft | 21 kts | 236° |
| 2026-05-08 08:56 | 43.34982 | 77.03006 | 2231 ft | 1 kts | 236° |
| 2026-05-08 08:56 | 43.34975 | 77.02992 | 2231 ft | 3 kts | 236° |
| 2026-05-08 08:56 | 43.34961 | 77.02965 | 2227 ft | 4 kts | 236° |
| 2026-05-08 08:56 | 43.34944 | 77.02929 | 2231 ft | 5 kts | 236° |
| 2026-05-08 08:57 | 43.34923 | 77.02886 | 2231 ft | 6 kts | 236° |
| 2026-05-08 08:57 | 43.34896 | 77.02833 | 2236 ft | 8 kts | 236° |
| 2026-05-08 08:57 | 43.34864 | 77.02766 | 2230 ft | 9 kts | 236° |
| 2026-05-08 08:57 | 43.34834 | 77.02706 | 2229 ft | 1 kts | 236° |
| 2026-05-08 08:58 | 43.34828 | 77.02695 | 2230 ft | 2 kts | 236° |
| 2026-05-08 08:58 | 43.34804 | 77.02646 | 2229 ft | 12 kts | 236° |
| 2026-05-08 08:58 | 43.34775 | 77.02504 | 2231 ft | 19 kts | 273° |
| 2026-05-08 08:58 | 43.34783 | 77.02309 | 2229 ft | 21 kts | 273° |
| 2026-05-08 08:59 | 43.34792 | 77.02104 | 2232 ft | 22 kts | 273° |
| 2026-05-08 08:59 | 43.34800 | 77.01915 | 2228 ft | 15 kts | 274° |
| 2026-05-08 08:59 | 43.34807 | 77.01767 | 2233 ft | 16 kts | 274° |
| 2026-05-08 08:59 | 43.34812 | 77.01662 | 2226 ft | 16 kts | 274° |
| 2026-05-08 09:00 | 43.34824 | 77.01530 | 2231 ft | 6 kts | 296° |
| 2026-05-08 09:00 | 43.34864 | 77.01505 | 2230 ft | 12 kts | 345° |
| 2026-05-08 09:00 | 43.34948 | 77.01457 | 2233 ft | 7 kts | 336° |
| 2026-05-08 09:00 | 43.34951 | 77.01455 | 2233 ft | 1 kts | 336° |
| 2026-05-08 09:01 | 43.34955 | 77.01453 | 2233 ft | 1 kts | 338° |
| 2026-05-08 09:01 | 43.34964 | 77.01448 | 2228 ft | 2 kts | 339° |
| 2026-05-08 09:01 | 43.34981 | 77.01438 | 2233 ft | 2 kts | 329° |
| 2026-05-08 09:01 | 43.34988 | 77.01413 | 2233 ft | 6 kts | 281° |
| 2026-05-08 09:02 | 43.34975 | 77.01343 | 2233 ft | 7 kts | 249° |
| 2026-05-08 09:02 | 43.34965 | 77.01311 | 2233 ft | 2 kts | 246° |
| 2026-05-08 09:02 | 43.34962 | 77.01300 | 2233 ft | 0 kts | 246° |